Archival Weather

Chicago O'Hare International

Chicago, Illinois (KORD)

Report from: Friday, March 30, 2012 7:42 AM CDT
Current time: Thursday, July 18, 2024 9:24 PM CDT

Current weather – Weather history – Daily summaries
Weather forecast

Present weatherLight thunderstorm with rain
Temperature8.0°C (46.4°F)
Wind chill5.8°C (42.4°F)
Dew point6.0°C (42.8°F)
Winds 7 kts (3.6 m/s, 8.1 mph) Southeast (130°)
Visibility6 mi. (9.7 km)
Clouds Few clouds 2,300 ft. (701 m)
Scattered clouds with cumulonimbus 4,900 ft. (1,494 m)
Ceiling: Broken clouds 6,000 ft. (1,829 m)
Overcast 20,000 ft. (6,096 m)
Altimeter29.75 in.Hg (1007 mB)
Precipitiation0.50 in. (13 mm)
Precip. events Snow pellets began 12:15 PM
Snow pellets ended 12:20 PM
Relative humidity87 %
Density altitude-508 ft. (-155 m)
Remarks Special weather observation
Automated weather observing station with precipitation discriminator
Lightning observed: intra cloud, cloud to ground
Frequent northeast east thunderstorm northeast east moving northeast cumulonimbus clouds observed distant south
Flight conditions Visual Meteorological Conditions
Raw data2012-03-30 12:42 KORD 301242Z 13007KT 6SM -TSRA FEW023 SCT049CB BKN060 OVC200 08/06 A2975 RMK AO2 GSB15E20 FRQ LTGICCG VC NE-E TS NE-E MOV NE CB DSNT S P0050 SPECI
An error has occurred. This application may no longer respond until reloaded. Reload 🗙